createdAt,value
2024-02-21T00:00:22.909Z,76.70
2024-02-21T00:02:49.853Z,77.00
2024-02-21T00:05:16.990Z,77.10
2024-02-21T00:07:45.433Z,77.80
2024-02-21T00:10:12.457Z,77.00
2024-02-21T00:12:39.386Z,77.10
2024-02-21T00:15:07.307Z,76.90
2024-02-21T00:17:34.260Z,76.90
2024-02-21T00:20:01.359Z,77.00
2024-02-21T00:22:28.368Z,77.40
2024-02-21T00:24:56.662Z,78.10
2024-02-21T00:27:23.591Z,78.10
2024-02-21T00:29:50.604Z,77.40
2024-02-21T00:32:17.599Z,78.70
2024-02-21T00:34:45.370Z,78.60
2024-02-21T00:37:12.461Z,78.80
2024-02-21T00:39:39.403Z,78.80
2024-02-21T00:42:07.772Z,78.50
2024-02-21T00:44:34.780Z,78.50
2024-02-21T00:47:01.736Z,78.50
2024-02-21T00:49:28.802Z,79.00
2024-02-21T00:51:55.696Z,79.80
2024-02-21T00:54:22.593Z,78.80
2024-02-21T00:56:49.656Z,78.70
2024-02-21T00:59:17.990Z,78.60
2024-02-21T01:01:45.076Z,78.80
2024-02-21T01:04:12.231Z,79.10
2024-02-21T01:06:39.362Z,79.60
2024-02-21T01:09:06.337Z,80.00
2024-02-21T01:11:33.418Z,80.30
2024-02-21T01:14:00.532Z,80.60
2024-02-21T01:16:28.910Z,80.30
2024-02-21T01:18:55.993Z,81.50
2024-02-21T01:21:22.904Z,81.40
2024-02-21T01:23:49.936Z,81.70
2024-02-21T01:26:16.923Z,82.90
2024-02-21T01:28:43.851Z,81.90
2024-02-21T01:31:11.074Z,82.00
2024-02-21T01:33:39.391Z,82.20
2024-02-21T01:36:07.061Z,81.80
2024-02-21T01:38:34.180Z,81.60
2024-02-21T01:41:01.298Z,81.40
2024-02-21T01:43:28.479Z,80.80
2024-02-21T01:45:57.236Z,80.70
2024-02-21T01:48:25.415Z,81.10
2024-02-21T01:50:55.751Z,80.80
2024-02-21T01:53:26.442Z,81.20
2024-02-21T01:55:54.746Z,81.10
2024-02-21T01:58:22.065Z,80.70
2024-02-21T02:00:49.713Z,80.60
2024-02-21T02:03:16.858Z,80.60
2024-02-21T02:05:45.365Z,81.10
2024-02-21T02:08:14.024Z,81.60
2024-02-21T02:10:41.831Z,81.30
2024-02-21T02:13:08.912Z,81.50
2024-02-21T02:15:39.694Z,82.50
2024-02-21T02:18:07.120Z,83.20
2024-02-21T02:20:34.441Z,82.90
2024-02-21T02:23:03.215Z,82.40
2024-02-21T02:25:31.512Z,82.60
2024-02-21T02:27:58.502Z,81.70
2024-02-21T02:30:25.395Z,81.40
2024-02-21T02:32:52.467Z,81.60
2024-02-21T02:35:19.476Z,82.20
2024-02-21T02:37:50.169Z,83.00
2024-02-21T02:40:17.654Z,82.30
2024-02-21T02:42:45.990Z,82.50
2024-02-21T02:45:12.851Z,83.90
2024-02-21T02:47:41.245Z,83.40
2024-02-21T02:50:08.923Z,83.90
2024-02-21T02:52:35.886Z,83.70
2024-02-21T02:55:02.868Z,83.80
2024-02-21T02:57:29.805Z,83.80
2024-02-21T02:59:58.145Z,83.70
2024-02-21T03:02:25.134Z,84.00
2024-02-21T03:04:52.111Z,82.70
2024-02-21T03:07:19.105Z,83.70
2024-02-21T03:09:47.181Z,84.40
2024-02-21T03:12:14.186Z,83.70
2024-02-21T03:14:41.072Z,83.50
2024-02-21T03:17:09.653Z,83.80
2024-02-21T03:19:36.615Z,83.30
2024-02-21T03:22:03.537Z,83.90
2024-02-21T03:24:32.666Z,83.20
2024-02-21T03:26:59.645Z,83.30
2024-02-21T03:29:26.593Z,83.30
2024-02-21T03:31:53.545Z,83.90
2024-02-21T03:34:22.036Z,84.30
2024-02-21T03:36:49.022Z,84.20
2024-02-21T03:39:15.961Z,84.50
2024-02-21T03:41:42.839Z,84.50
2024-02-21T03:44:09.752Z,84.60
2024-02-21T03:46:36.688Z,84.70
2024-02-21T03:49:03.669Z,84.30
2024-02-21T03:51:31.978Z,84.00
2024-02-21T03:53:58.906Z,84.30
2024-02-21T03:56:25.801Z,84.10
2024-02-21T03:58:52.771Z,83.30
2024-02-21T04:01:19.791Z,83.70
2024-02-21T04:03:46.883Z,85.60
2024-02-21T04:06:13.986Z,86.00
2024-02-21T04:08:42.313Z,85.20
2024-02-21T04:11:09.245Z,84.30
2024-02-21T04:13:36.183Z,83.80
2024-02-21T04:16:03.255Z,84.00
2024-02-21T04:18:30.169Z,84.20
2024-02-21T04:20:57.083Z,84.30
2024-02-21T04:23:23.963Z,84.00
2024-02-21T04:25:52.306Z,82.60
2024-02-21T04:28:19.282Z,82.50
2024-02-21T04:30:46.592Z,82.40
2024-02-21T04:33:13.538Z,82.00
2024-02-21T04:35:40.634Z,81.80
2024-02-21T04:38:07.704Z,81.30
2024-02-21T04:40:34.725Z,81.90
2024-02-21T04:43:03.095Z,82.40
2024-02-21T04:45:30.022Z,83.40
2024-02-21T04:47:57.003Z,83.60
2024-02-21T04:50:24.012Z,82.80
2024-02-21T04:52:51.065Z,83.20
2024-02-21T04:55:18.030Z,83.00
2024-02-21T04:57:45.034Z,84.20
2024-02-21T05:00:14.433Z,83.60
2024-02-21T05:02:41.319Z,83.60
2024-02-21T05:05:09.581Z,83.60
2024-02-21T05:07:36.760Z,83.30
2024-02-21T05:10:04.028Z,83.00
2024-02-21T05:12:31.006Z,83.00
2024-02-21T05:14:57.968Z,82.40
2024-02-21T05:17:26.370Z,82.50
2024-02-21T05:19:53.393Z,82.90
2024-02-21T05:22:20.361Z,83.30
2024-02-21T05:24:47.338Z,83.50
2024-02-21T05:27:14.326Z,84.50
2024-02-21T05:29:41.235Z,84.00
2024-02-21T05:32:08.217Z,84.10
2024-02-21T05:34:36.661Z,84.00
2024-02-21T05:37:03.730Z,84.10
2024-02-21T05:39:30.944Z,83.90
2024-02-21T05:41:57.959Z,83.50
2024-02-21T05:44:24.915Z,83.80
2024-02-21T05:46:51.960Z,83.70
2024-02-21T05:49:19.187Z,83.70
2024-02-21T05:51:47.560Z,83.30
2024-02-21T05:54:14.555Z,83.20
2024-02-21T05:56:45.614Z,83.20
2024-02-21T05:59:12.526Z,84.30
2024-02-21T06:01:39.455Z,83.60
2024-02-21T06:04:06.445Z,99.90
2024-02-21T06:06:33.462Z,99.90
2024-02-21T06:09:01.724Z,99.90
2024-02-21T06:11:28.798Z,84.60
2024-02-21T06:13:56.290Z,95.10
2024-02-21T06:16:23.377Z,82.10
2024-02-21T06:18:50.356Z,82.50
2024-02-21T06:21:17.326Z,82.80
2024-02-21T06:23:44.266Z,83.30
2024-02-21T06:26:12.591Z,83.50
2024-02-21T06:28:39.571Z,84.40
2024-02-21T06:31:06.582Z,85.10
2024-02-21T06:33:33.564Z,84.40
2024-02-21T06:36:00.571Z,84.50
2024-02-21T06:38:27.633Z,85.40
2024-02-21T06:40:54.690Z,84.50
2024-02-21T06:43:23.007Z,85.40
2024-02-21T06:45:49.977Z,84.40
2024-02-21T06:48:17.050Z,84.00
2024-02-21T06:50:44.110Z,84.00
2024-02-21T06:53:10.996Z,85.20
2024-02-21T06:55:38.052Z,84.90
2024-02-21T06:58:05.169Z,84.90
2024-02-21T07:00:33.534Z,85.10
2024-02-21T07:03:00.536Z,86.80
2024-02-21T07:05:27.563Z,84.80
2024-02-21T07:07:54.576Z,84.60
2024-02-21T07:10:21.703Z,85.20
2024-02-21T07:12:48.630Z,84.90
2024-02-21T07:15:15.643Z,88.40
2024-02-21T07:17:44.061Z,84.80
2024-02-21T07:20:11.785Z,90.20
2024-02-21T07:22:38.862Z,83.80
2024-02-21T07:25:07.237Z,83.50
2024-02-21T07:27:34.398Z,82.90
2024-02-21T07:30:01.550Z,81.90
2024-02-21T07:32:28.592Z,82.10
2024-02-21T07:34:57.010Z,82.80
2024-02-21T07:37:23.980Z,82.90
2024-02-21T07:39:50.985Z,83.00
2024-02-21T07:42:17.949Z,83.80
2024-02-21T07:44:44.977Z,83.40
2024-02-21T07:47:11.973Z,83.00
2024-02-21T07:49:45.969Z,84.70
2024-02-21T07:52:14.392Z,85.90
2024-02-21T07:54:41.616Z,87.10
2024-02-21T07:57:08.913Z,85.70
2024-02-21T07:59:35.889Z,85.50
2024-02-21T08:02:02.928Z,84.70
2024-02-21T08:04:30.066Z,83.80
2024-02-21T08:06:57.113Z,83.20
2024-02-21T08:09:25.485Z,81.00
2024-02-21T08:11:52.459Z,80.90
2024-02-21T08:14:21.224Z,81.10
2024-02-21T08:16:48.629Z,79.80
2024-02-21T08:19:15.861Z,80.60
2024-02-21T08:21:42.964Z,79.70
2024-02-21T08:24:09.960Z,81.30
2024-02-21T08:26:41.691Z,81.90
2024-02-21T08:29:08.858Z,81.40
2024-02-21T08:31:36.020Z,81.00
2024-02-21T08:34:03.085Z,81.60
2024-02-21T08:36:30.113Z,79.80
2024-02-21T08:38:57.199Z,78.70
2024-02-21T08:41:33.756Z,76.80
2024-02-21T08:44:10.922Z,76.30
2024-02-21T08:46:37.872Z,76.40
2024-02-21T08:49:04.951Z,75.60
2024-02-21T08:51:32.036Z,76.40
2024-02-21T08:53:59.423Z,76.30
2024-02-21T08:56:26.377Z,75.90
2024-02-21T08:58:53.379Z,74.10
2024-02-21T09:01:21.768Z,75.50
2024-02-21T09:03:48.822Z,76.80
2024-02-21T09:06:15.852Z,76.20
2024-02-21T09:08:42.864Z,71.60
2024-02-21T09:11:10.791Z,75.20
2024-02-21T09:13:37.895Z,72.10
2024-02-21T09:16:05.653Z,71.70
2024-02-21T09:18:33.912Z,71.50
2024-02-21T09:21:00.931Z,68.30
2024-02-21T09:23:27.967Z,67.00
2024-02-21T09:25:54.970Z,66.90
2024-02-21T09:28:22.101Z,64.40
2024-02-21T09:30:49.131Z,65.70
2024-02-21T09:33:26.518Z,62.10
2024-02-21T09:35:59.202Z,62.30
2024-02-21T09:38:26.404Z,61.20
2024-02-21T09:41:00.803Z,60.70
2024-02-21T09:43:28.012Z,58.30
2024-02-21T09:45:56.544Z,59.00
2024-02-21T09:48:43.793Z,58.00
2024-02-21T09:51:13.053Z,53.80
2024-02-21T09:53:41.736Z,51.60
2024-02-21T09:56:13.168Z,53.40
2024-02-21T09:58:42.242Z,51.80
2024-02-21T10:01:20.745Z,51.50
2024-02-21T10:03:53.629Z,50.80
2024-02-21T10:06:22.897Z,50.00
2024-02-21T10:08:53.703Z,49.40
2024-02-21T10:11:24.154Z,49.00
2024-02-21T10:13:51.138Z,47.50
2024-02-21T10:16:18.341Z,48.50
2024-02-21T10:18:45.450Z,48.20
2024-02-21T10:21:12.390Z,49.30
2024-02-21T10:23:44.425Z,48.00
2024-02-21T10:26:11.542Z,46.50
2024-02-21T10:28:39.075Z,45.80
2024-02-21T10:31:05.980Z,45.70
2024-02-21T10:33:32.992Z,44.80
2024-02-21T10:36:08.229Z,41.90
2024-02-21T10:38:35.172Z,43.10
2024-02-21T10:41:05.417Z,41.10
2024-02-21T10:43:39.427Z,40.30
2024-02-21T10:46:07.329Z,41.10
2024-02-21T10:48:43.142Z,41.20
2024-02-21T10:51:16.078Z,38.90
2024-02-21T10:53:46.345Z,40.70
2024-02-21T10:56:23.058Z,42.00
2024-02-21T10:58:50.814Z,38.80
2024-02-21T11:01:19.490Z,38.60
2024-02-21T11:03:49.666Z,37.30
2024-02-21T11:06:18.791Z,36.40
2024-02-21T11:08:45.856Z,36.30
2024-02-21T11:11:24.145Z,36.40
2024-02-21T11:14:06.296Z,35.90
2024-02-21T11:16:37.492Z,34.90
2024-02-21T11:19:08.976Z,35.30
2024-02-21T11:21:36.299Z,35.70
2024-02-21T11:24:03.455Z,36.20
2024-02-21T11:26:32.249Z,33.70
2024-02-21T11:29:00.136Z,33.80
2024-02-21T11:31:27.612Z,33.00
2024-02-21T11:33:54.786Z,32.70
2024-02-21T11:36:26.390Z,32.50
2024-02-21T11:38:53.814Z,31.20
2024-02-21T11:41:20.795Z,32.00
2024-02-21T11:43:50.022Z,33.10
2024-02-21T11:46:17.106Z,31.90
2024-02-21T11:48:44.279Z,30.90
2024-02-21T11:51:11.347Z,31.20
2024-02-21T11:53:44.007Z,31.50
2024-02-21T11:56:17.751Z,32.70
2024-02-21T11:58:44.700Z,30.70
2024-02-21T12:01:13.305Z,31.00
2024-02-21T12:03:40.607Z,32.80
2024-02-21T12:06:08.395Z,32.50
2024-02-21T12:08:44.665Z,31.90
2024-02-21T12:11:22.031Z,31.20
2024-02-21T12:13:59.264Z,29.20
2024-02-21T12:16:28.682Z,28.50
2024-02-21T12:18:55.851Z,29.70
2024-02-21T12:21:25.303Z,29.20
2024-02-21T12:23:52.379Z,29.40
2024-02-21T12:26:20.586Z,30.20
2024-02-21T12:28:48.737Z,29.60
2024-02-21T12:31:16.342Z,28.70
2024-02-21T12:33:44.893Z,28.50
2024-02-21T12:36:12.040Z,29.10
2024-02-21T12:38:39.077Z,27.90
2024-02-21T12:41:06.547Z,29.60
2024-02-21T12:43:33.609Z,30.20
2024-02-21T12:46:00.570Z,30.10
2024-02-21T12:48:27.561Z,29.00
2024-02-21T12:50:55.946Z,28.10
2024-02-21T12:53:26.508Z,28.40
2024-02-21T12:55:59.842Z,28.10
2024-02-21T12:58:26.940Z,26.50
2024-02-21T13:00:54.084Z,26.70
2024-02-21T13:03:21.059Z,26.90
2024-02-21T13:05:48.043Z,26.90
2024-02-21T13:08:16.423Z,25.70
2024-02-21T13:10:43.423Z,24.60
2024-02-21T13:13:10.494Z,25.30
2024-02-21T13:15:37.371Z,24.40
2024-02-21T13:18:04.936Z,25.40
2024-02-21T13:20:31.987Z,24.40
2024-02-21T13:22:58.956Z,25.00
2024-02-21T13:25:27.331Z,24.10
2024-02-21T13:27:54.303Z,25.20
2024-02-21T13:30:21.236Z,24.80
2024-02-21T13:32:48.183Z,25.10
2024-02-21T13:35:15.981Z,25.10
2024-02-21T13:37:43.192Z,25.50
2024-02-21T13:40:10.740Z,24.70
2024-02-21T13:42:39.140Z,23.70
2024-02-21T13:45:07.555Z,25.00
2024-02-21T13:47:35.045Z,25.00
2024-02-21T13:50:02.054Z,24.80
2024-02-21T13:52:29.025Z,24.00
2024-02-21T13:54:55.959Z,24.70
2024-02-21T13:57:22.876Z,23.30
2024-02-21T13:59:51.159Z,24.60
2024-02-21T14:02:18.149Z,24.00
2024-02-21T14:04:45.156Z,24.00
2024-02-21T14:07:12.278Z,21.10
2024-02-21T14:09:39.227Z,21.00
2024-02-21T14:12:07.480Z,20.20
2024-02-21T14:14:36.790Z,18.80
2024-02-21T14:17:06.849Z,18.50
2024-02-21T14:19:33.999Z,18.10
2024-02-21T14:22:01.004Z,17.20
2024-02-21T14:24:27.958Z,17.60
2024-02-21T14:26:55.072Z,18.40
2024-02-21T14:29:22.197Z,19.40
2024-02-21T14:31:49.244Z,19.70
2024-02-21T14:34:17.788Z,20.00
2024-02-21T14:36:44.876Z,21.40
2024-02-21T14:39:11.796Z,21.70
2024-02-21T14:41:38.728Z,22.80
2024-02-21T14:44:05.919Z,24.40
2024-02-21T14:46:33.120Z,25.30
2024-02-21T14:49:00.252Z,26.40
2024-02-21T14:51:28.581Z,26.80
2024-02-21T14:53:55.529Z,28.00
2024-02-21T14:56:22.549Z,27.90
2024-02-21T14:58:51.928Z,31.80
2024-02-21T15:01:21.200Z,33.80
2024-02-21T15:03:48.273Z,33.20
2024-02-21T15:06:15.270Z,33.00
2024-02-21T15:08:43.609Z,32.40
2024-02-21T15:11:10.587Z,33.80
2024-02-21T15:13:37.693Z,34.70
2024-02-21T15:16:05.300Z,35.00
2024-02-21T15:18:32.222Z,36.20
2024-02-21T15:20:59.144Z,36.70
2024-02-21T15:23:26.111Z,36.20
2024-02-21T15:25:54.436Z,36.30
2024-02-21T15:28:21.439Z,37.30
2024-02-21T15:30:48.407Z,37.50
2024-02-21T15:33:15.512Z,38.20
2024-02-21T15:35:42.588Z,38.70
2024-02-21T15:38:09.579Z,38.90
2024-02-21T15:40:36.532Z,38.70
2024-02-21T15:43:05.158Z,38.50
2024-02-21T15:45:32.061Z,38.70
2024-02-21T15:47:58.972Z,39.70
2024-02-21T15:50:26.041Z,40.80
2024-02-21T15:52:53.020Z,40.20
2024-02-21T15:55:20.052Z,40.90
2024-02-21T15:57:47.035Z,42.10
2024-02-21T16:00:16.396Z,43.50
2024-02-21T16:02:43.460Z,43.80
2024-02-21T16:05:11.139Z,43.90
2024-02-21T16:07:38.391Z,45.00
2024-02-21T16:10:06.058Z,44.40
2024-02-21T16:12:34.049Z,44.80
2024-02-21T16:15:01.295Z,44.60
2024-02-21T16:17:29.676Z,45.20
2024-02-21T16:19:56.661Z,45.50
2024-02-21T16:22:23.681Z,46.00
2024-02-21T16:24:53.215Z,46.60
2024-02-21T16:27:21.543Z,47.30
2024-02-21T16:29:48.475Z,46.00
2024-02-21T16:32:15.878Z,46.40
2024-02-21T16:34:44.391Z,46.80
2024-02-21T16:37:12.668Z,48.00
2024-02-21T16:39:40.797Z,48.10
2024-02-21T16:42:07.837Z,49.10
2024-02-21T16:44:34.794Z,48.80
2024-02-21T16:47:01.858Z,48.80
2024-02-21T16:49:28.980Z,49.20
2024-02-21T16:51:57.795Z,49.40
2024-02-21T16:54:26.133Z,50.50
2024-02-21T16:56:53.323Z,50.50
2024-02-21T16:59:20.941Z,51.70
2024-02-21T17:01:48.001Z,52.60
2024-02-21T17:04:16.163Z,52.50
2024-02-21T17:06:43.295Z,52.20
2024-02-21T17:09:11.572Z,52.60
2024-02-21T17:11:38.664Z,52.70
2024-02-21T17:14:05.748Z,53.70
2024-02-21T17:16:32.824Z,53.90
2024-02-21T17:18:59.930Z,53.70
2024-02-21T17:21:26.953Z,54.50
2024-02-21T17:23:53.879Z,55.60
2024-02-21T17:26:22.613Z,55.20
2024-02-21T17:28:49.617Z,55.70
2024-02-21T17:31:16.587Z,55.00
2024-02-21T17:33:43.583Z,54.70
2024-02-21T17:36:12.422Z,55.00
2024-02-21T17:38:40.365Z,54.90
2024-02-21T17:41:07.439Z,55.50
2024-02-21T17:43:35.813Z,56.00
2024-02-21T17:46:03.262Z,56.20
2024-02-21T17:48:30.467Z,56.40
2024-02-21T17:50:57.570Z,55.70
2024-02-21T17:53:24.688Z,56.20
2024-02-21T17:55:51.953Z,56.40
2024-02-21T17:58:19.262Z,56.70
2024-02-21T18:00:47.772Z,56.90
2024-02-21T18:03:14.743Z,56.60
2024-02-21T18:05:41.903Z,57.70
2024-02-21T18:08:08.932Z,58.20
2024-02-21T18:10:36.309Z,57.70
2024-02-21T18:13:03.346Z,56.90
2024-02-21T18:15:30.504Z,57.00
2024-02-21T18:17:58.892Z,57.20
2024-02-21T18:20:26.623Z,57.30
2024-02-21T18:22:53.804Z,57.60
2024-02-21T18:25:20.752Z,58.10
2024-02-21T18:27:47.688Z,58.20
2024-02-21T18:30:14.920Z,59.50
2024-02-21T18:32:41.942Z,59.30
2024-02-21T18:35:10.617Z,59.50
2024-02-21T18:37:37.831Z,60.30
2024-02-21T18:40:05.775Z,60.10
2024-02-21T18:42:34.274Z,59.70
2024-02-21T18:45:01.209Z,59.90
2024-02-21T18:47:28.183Z,60.20
2024-02-21T18:49:55.479Z,60.40
2024-02-21T18:52:24.107Z,60.40
2024-02-21T18:54:51.012Z,59.90
2024-02-21T18:57:18.461Z,60.60
2024-02-21T18:59:45.673Z,61.00
2024-02-21T19:02:12.865Z,60.90
2024-02-21T19:04:40.132Z,60.90
2024-02-21T19:07:07.160Z,61.40
2024-02-21T19:09:35.721Z,61.20
2024-02-21T19:12:02.775Z,62.40
2024-02-21T19:14:29.837Z,62.30
2024-02-21T19:16:56.928Z,63.80
2024-02-21T19:19:24.006Z,62.50
2024-02-21T19:21:51.055Z,62.70
2024-02-21T19:24:17.981Z,64.30
2024-02-21T19:26:46.340Z,64.40
2024-02-21T19:29:13.405Z,65.80
2024-02-21T19:31:40.396Z,65.70
2024-02-21T19:34:07.433Z,64.60
2024-02-21T19:36:34.606Z,65.80
2024-02-21T19:39:01.633Z,66.50
2024-02-21T19:41:28.566Z,65.90
2024-02-21T19:43:56.995Z,65.00
2024-02-21T19:46:23.997Z,64.10
2024-02-21T19:48:51.100Z,65.00
2024-02-21T19:51:18.179Z,64.70
2024-02-21T19:53:45.169Z,65.70
2024-02-21T19:56:12.156Z,64.80
2024-02-21T19:58:39.142Z,64.30
2024-02-21T20:01:08.047Z,63.10
2024-02-21T20:03:35.204Z,62.50
2024-02-21T20:06:02.244Z,63.70
2024-02-21T20:08:29.403Z,64.00
2024-02-21T20:10:56.578Z,65.10
2024-02-21T20:13:23.734Z,64.90
2024-02-21T20:15:50.653Z,65.50
2024-02-21T20:18:19.063Z,66.00
2024-02-21T20:20:46.067Z,66.20
2024-02-21T20:23:13.035Z,65.20
2024-02-21T20:25:40.024Z,66.30
2024-02-21T20:28:07.232Z,66.30
2024-02-21T20:30:34.241Z,65.50
2024-02-21T20:33:01.203Z,65.60
2024-02-21T20:35:29.601Z,65.10
2024-02-21T20:37:56.607Z,65.10
2024-02-21T20:40:23.619Z,65.40
2024-02-21T20:42:50.672Z,65.40
2024-02-21T20:45:17.946Z,65.80
2024-02-21T20:47:44.985Z,66.80
2024-02-21T20:50:12.923Z,67.60
2024-02-21T20:52:41.362Z,68.10
2024-02-21T20:55:09.134Z,68.20
2024-02-21T20:57:36.038Z,67.70
2024-02-21T21:00:03.210Z,67.50
2024-02-21T21:02:30.230Z,68.20
2024-02-21T21:04:57.389Z,68.10
2024-02-21T21:07:24.624Z,68.70
2024-02-21T21:09:52.963Z,67.80
2024-02-21T21:12:19.920Z,68.70
2024-02-21T21:14:46.922Z,70.10
2024-02-21T21:17:13.932Z,72.50
2024-02-21T21:19:41.006Z,68.80
2024-02-21T21:22:08.078Z,80.10
2024-02-21T21:24:34.995Z,68.70
2024-02-21T21:27:03.540Z,68.00
2024-02-21T21:29:30.514Z,68.60
2024-02-21T21:31:57.530Z,68.50
2024-02-21T21:34:24.635Z,70.80
2024-02-21T21:36:51.635Z,71.00
2024-02-21T21:39:18.533Z,70.20
2024-02-21T21:41:45.440Z,70.10
2024-02-21T21:44:14.177Z,69.80
2024-02-21T21:46:41.175Z,69.20
2024-02-21T21:49:08.504Z,69.20
2024-02-21T21:51:35.521Z,70.00
2024-02-21T21:54:02.473Z,69.90
2024-02-21T21:56:29.341Z,70.20
2024-02-21T21:58:56.418Z,70.50
2024-02-21T22:01:27.911Z,70.20
2024-02-21T22:03:54.938Z,70.20
2024-02-21T22:06:21.935Z,70.40
2024-02-21T22:08:51.692Z,70.10
2024-02-21T22:11:20.031Z,70.30
2024-02-21T22:13:47.307Z,70.20
2024-02-21T22:16:14.409Z,70.00
2024-02-21T22:18:43.339Z,70.30
2024-02-21T22:21:10.631Z,70.30
2024-02-21T22:23:40.297Z,70.80
2024-02-21T22:26:07.899Z,71.50
2024-02-21T22:28:35.060Z,70.70
2024-02-21T22:31:02.143Z,70.30
2024-02-21T22:33:29.129Z,70.00
2024-02-21T22:35:57.576Z,70.60
2024-02-21T22:38:24.514Z,71.00
2024-02-21T22:40:51.416Z,71.50
2024-02-21T22:43:18.496Z,71.90
2024-02-21T22:45:45.641Z,71.40
2024-02-21T22:48:12.574Z,71.50
2024-02-21T22:50:39.681Z,72.50
2024-02-21T22:53:08.079Z,71.90
2024-02-21T22:55:35.056Z,72.30
2024-02-21T22:58:02.022Z,74.20
2024-02-21T23:00:29.199Z,74.00
2024-02-21T23:02:56.469Z,73.20
2024-02-21T23:05:23.736Z,73.90
2024-02-21T23:07:50.921Z,74.20
2024-02-21T23:10:19.487Z,73.40
2024-02-21T23:12:46.388Z,72.70
2024-02-21T23:15:13.439Z,73.50
2024-02-21T23:17:40.369Z,72.60
2024-02-21T23:20:08.768Z,72.50
2024-02-21T23:22:36.341Z,74.70
2024-02-21T23:25:04.131Z,74.40
2024-02-21T23:27:32.547Z,74.00
2024-02-21T23:29:59.445Z,73.60
2024-02-21T23:32:26.349Z,73.30
2024-02-21T23:34:53.261Z,73.30
2024-02-21T23:37:20.217Z,72.70
2024-02-21T23:39:47.098Z,73.90
2024-02-21T23:42:14.080Z,74.70
2024-02-21T23:44:42.558Z,75.70
2024-02-21T23:47:09.559Z,76.70
2024-02-21T23:49:36.726Z,77.30
2024-02-21T23:52:03.955Z,76.10
2024-02-21T23:54:30.883Z,74.50
2024-02-21T23:56:57.780Z,74.80
2024-02-21T23:59:24.660Z,75.90
